This is the latest recevied weather packets stored in our database for station/object M0UPS-13. If no packets are shown the sender has not sent any weather packets the latest 10 day(s).
| Time | Temp. | Humidity | Pressure | Rain* | Wind** | Luminosity | Snow |
|---|---|---|---|---|---|---|---|
| 1778153703 | 13.33° C | 60% | 1016.4 hPa | 0 mm | - | 161 W/m² | - |
| 1778153402 | 13.33° C | 61% | 1016.6 hPa | 0 mm | - | 150 W/m² | - |
| 1778153102 | 13.33° C | 61% | 1016.6 hPa | 0 mm | - | 135 W/m² | - |
| 1778152802 | 12.78° C | 60% | 1016.5 hPa | 0 mm | - | 123 W/m² | - |
| 1778152502 | 12.78° C | 62% | 1016.6 hPa | 0 mm | - | 121 W/m² | - |
| 1778152202 | 13.33° C | 61% | 1016.5 hPa | 0 mm | - | 115 W/m² | - |
| 1778151902 | 13.33° C | 60% | 1016.7 hPa | 0 mm | - | 101 W/m² | - |
| 1778151602 | 12.78° C | 61% | 1016.8 hPa | 0 mm | - | 99 W/m² | - |
| 1778151302 | 12.78° C | 61% | 1016.7 hPa | 0 mm | - | 99 W/m² | - |
| 1778151002 | 12.78° C | 62% | 1016.6 hPa | 0 mm | - | 92 W/m² | - |
| 1778150702 | 12.78° C | 62% | 1017 hPa | 0 mm | - | 91 W/m² | - |
| 1778150402 | 12.78° C | 62% | 1016.7 hPa | 0 mm | - | 93 W/m² | - |
| 1778150102 | 13.33° C | 62% | 1016.8 hPa | 0 mm | - | 102 W/m² | - |
| 1778149802 | 13.33° C | 60% | 1016.6 hPa | 0 mm | - | 124 W/m² | - |
| 1778149503 | 13.33° C | 61% | 1016.7 hPa | 0 mm | - | 162 W/m² | - |
| 1778149203 | 13.89° C | 59% | 1017 hPa | 0 mm | - | 186 W/m² | - |
| 1778148902 | 15.56° C | 56% | 1017.1 hPa | 0 mm | - | 192 W/m² | - |
| 1778148602 | 15° C | 60% | 1017 hPa | 0 mm | - | 789 W/m² | - |
| 1778148302 | 14.44° C | 59% | 1016.8 hPa | 0 mm | - | 753 W/m² | - |
| 1778148002 | 13.33° C | 62% | 1016.8 hPa | 0 mm | - | 710 W/m² | - |
| 1778147702 | 12.78° C | 65% | 1016.8 hPa | 0 mm | - | 691 W/m² | - |
| 1778147402 | 12.78° C | 67% | 1016.7 hPa | 0 mm | - | 146 W/m² | - |
| 1778147102 | 12.78° C | 65% | 1016.7 hPa | 0 mm | - | 161 W/m² | - |
| 1778146802 | 12.22° C | 66% | 1016.6 hPa | 0 mm | - | 203 W/m² | - |
| 1778146502 | 12.22° C | 67% | 1016.6 hPa | 0 mm | - | 159 W/m² | - |
* Rain latest hour (hover to see other rain measurements)
** Current wind speed in m/s (hover to see current wind gust speed)